createdAt,value
2018-11-12T00:03:28.663Z,0.93
2018-11-12T00:08:32.485Z,0.80
2018-11-12T00:13:36.210Z,0.90
2018-11-12T00:18:39.994Z,0.90
2018-11-12T00:23:44.030Z,0.80
2018-11-12T00:28:47.817Z,0.83
2018-11-12T00:33:51.695Z,0.70
2018-11-12T00:38:55.672Z,0.80
2018-11-12T00:44:00.020Z,0.60
2018-11-12T00:49:03.808Z,0.80
2018-11-12T00:54:07.968Z,0.80
2018-11-12T00:59:11.733Z,0.90
2018-11-12T01:04:15.853Z,0.87
2018-11-12T01:09:19.602Z,0.77
2018-11-12T01:14:23.904Z,0.90
2018-11-12T01:19:27.903Z,0.70
2018-11-12T01:24:31.670Z,0.50
2018-11-12T01:29:35.418Z,0.60
2018-11-12T01:34:39.152Z,0.70
2018-11-12T01:39:43.032Z,0.60
2018-11-12T01:44:46.870Z,0.80
2018-11-12T01:49:50.640Z,0.60
2018-11-12T01:54:54.350Z,0.70
2018-11-12T01:59:58.010Z,0.60
2018-11-12T02:05:01.929Z,0.60
2018-11-12T02:10:06.815Z,0.70
2018-11-12T02:15:13.556Z,0.73
2018-11-12T02:20:18.659Z,0.70
2018-11-12T02:25:22.570Z,0.70
2018-11-12T02:30:31.905Z,0.70
2018-11-12T02:35:35.628Z,0.80
2018-11-12T02:40:39.543Z,0.80
2018-11-12T02:45:43.550Z,0.60
2018-11-12T02:50:47.603Z,0.60
2018-11-12T02:55:51.502Z,0.70
2018-11-12T03:00:55.281Z,0.67
2018-11-12T03:05:59.189Z,0.70
2018-11-12T03:11:03.215Z,0.50
2018-11-12T03:16:07.252Z,0.77
2018-11-12T03:21:11.254Z,0.60
2018-11-12T03:26:15.639Z,0.47
2018-11-12T03:31:19.613Z,0.40
2018-11-12T03:36:23.237Z,0.50
2018-11-12T03:41:27.253Z,0.40
2018-11-12T03:46:31.117Z,0.70
2018-11-12T03:51:35.446Z,0.50
2018-11-12T03:56:39.264Z,0.60
2018-11-12T04:01:44.453Z,0.63
2018-11-12T04:06:48.689Z,0.63
2018-11-12T04:11:52.606Z,0.67
2018-11-12T04:16:56.350Z,0.60
2018-11-12T04:22:00.667Z,0.60
2018-11-12T04:27:04.910Z,0.63
2018-11-12T04:32:08.856Z,0.80
2018-11-12T04:37:12.953Z,0.70
2018-11-12T04:42:17.007Z,0.70
2018-11-12T04:47:20.759Z,0.60
2018-11-12T04:52:25.358Z,0.60
2018-11-12T04:57:29.272Z,0.53
2018-11-12T05:02:33.003Z,0.60
2018-11-12T05:07:37.048Z,0.67
2018-11-12T05:12:41.648Z,0.40
2018-11-12T05:17:46.228Z,0.70
2018-11-12T05:22:50.227Z,0.70
2018-11-12T05:27:54.045Z,0.50
2018-11-12T05:32:58.431Z,0.70
2018-11-12T05:38:06.223Z,0.70
2018-11-12T05:43:10.712Z,0.77
2018-11-12T05:48:14.587Z,0.80
2018-11-12T05:53:18.389Z,0.80
2018-11-12T05:58:23.250Z,0.83
2018-11-12T06:03:26.830Z,1.10
2018-11-12T06:08:30.830Z,1.00
2018-11-12T06:13:34.513Z,0.97
2018-11-12T06:18:38.718Z,0.90
2018-11-12T06:23:45.358Z,0.83
2018-11-12T06:28:49.492Z,0.97
2018-11-12T06:33:53.167Z,0.93
2018-11-12T06:38:56.964Z,1.00
2018-11-12T06:44:01.146Z,0.90
2018-11-12T06:49:04.799Z,1.00
2018-11-12T06:54:08.447Z,1.00
2018-11-12T06:59:12.137Z,1.10
2018-11-12T07:04:16.075Z,2.20
2018-11-12T07:09:20.179Z,1.20
2018-11-12T07:14:23.881Z,1.00
2018-11-12T07:19:27.509Z,1.30
2018-11-12T07:24:49.712Z,1.40
2018-11-12T07:29:53.584Z,1.20
2018-11-12T07:34:57.294Z,1.20
2018-11-12T07:40:00.963Z,1.50
2018-11-12T07:45:05.714Z,1.70
2018-11-12T07:50:11.759Z,1.40
2018-11-12T07:55:17.873Z,1.40
2018-11-12T08:00:24.121Z,1.20
2018-11-12T08:05:27.938Z,1.43
2018-11-12T08:10:32.194Z,2.20
2018-11-12T08:15:36.229Z,1.57
2018-11-12T08:20:39.903Z,2.20
2018-11-12T08:25:43.698Z,1.70
2018-11-12T08:30:47.568Z,1.80
2018-11-12T08:35:51.220Z,1.67
2018-11-12T08:40:55.629Z,2.53
2018-11-12T08:45:59.333Z,2.20
2018-11-12T08:51:02.946Z,2.30
2018-11-12T08:56:06.617Z,3.23
2018-11-12T09:01:10.960Z,2.87
2018-11-12T09:06:14.619Z,2.53
2018-11-12T09:11:18.702Z,2.50
2018-11-12T09:16:22.610Z,2.37
2018-11-12T09:21:26.667Z,2.53
2018-11-12T09:26:31.306Z,3.30
2018-11-12T09:31:35.045Z,2.80
2018-11-12T09:36:38.713Z,2.90
2018-11-12T09:41:42.669Z,3.13
2018-11-12T09:46:46.721Z,3.43
2018-11-12T09:51:50.479Z,3.07
2018-11-12T09:56:54.245Z,3.30
2018-11-12T10:01:58.467Z,2.67
2018-11-12T10:07:03.373Z,2.70
2018-11-12T10:12:09.152Z,3.20
2018-11-12T10:17:13.166Z,3.40
2018-11-12T10:22:13.753Z,4.27
2018-11-12T10:27:17.482Z,4.00
2018-11-12T10:32:21.169Z,4.07
2018-11-12T10:37:24.851Z,4.10
2018-11-12T10:42:28.490Z,3.87
2018-11-12T10:47:32.553Z,4.47
2018-11-12T10:52:36.745Z,3.93
2018-11-12T10:57:41.362Z,3.40
2018-11-12T11:02:50.526Z,3.77
2018-11-12T11:07:54.740Z,3.67
2018-11-12T11:12:59.949Z,4.03
2018-11-12T11:18:03.713Z,4.50
2018-11-12T11:23:07.369Z,4.50
2018-11-12T11:28:11.027Z,5.00
2018-11-12T11:33:14.702Z,4.50
2018-11-12T11:38:18.336Z,4.57
2018-11-12T11:43:22.025Z,4.53
2018-11-12T11:48:26.064Z,4.77
2018-11-12T11:53:29.754Z,4.63
2018-11-12T11:58:33.401Z,4.37
2018-11-12T12:03:37.046Z,4.80
2018-11-12T12:08:40.715Z,4.50
2018-11-12T12:13:44.775Z,4.70
2018-11-12T12:18:48.555Z,4.90
2018-11-12T12:23:52.329Z,4.70
2018-11-12T12:28:56.613Z,5.10
2018-11-12T12:34:00.526Z,5.10
2018-11-12T12:39:05.703Z,4.93
2018-11-12T12:44:09.944Z,4.90
2018-11-12T12:49:14.036Z,5.13
2018-11-12T12:54:17.813Z,5.50
2018-11-12T12:59:21.616Z,5.17
2018-11-12T13:04:25.538Z,5.43
2018-11-12T13:09:29.408Z,5.80
2018-11-12T13:14:33.091Z,6.07
2018-11-12T13:19:36.791Z,6.73
2018-11-12T13:24:40.834Z,7.03
2018-11-12T13:29:44.429Z,7.83
2018-11-12T13:34:48.310Z,8.37
2018-11-12T13:39:52.008Z,8.30
2018-11-12T13:44:56.217Z,8.83
2018-11-12T13:49:59.958Z,8.87
2018-11-12T13:55:04.155Z,10.03
2018-11-12T14:00:13.279Z,12.03
2018-11-12T14:05:18.345Z,17.30
2018-11-12T14:10:24.441Z,19.43
2018-11-12T14:15:28.154Z,20.80
2018-11-12T14:20:32.383Z,18.70
2018-11-12T14:25:35.799Z,18.47
2018-11-12T14:30:39.493Z,19.50
2018-11-12T14:35:43.267Z,19.23
2018-11-12T14:40:47.058Z,20.30
2018-11-12T14:45:51.435Z,20.17
2018-11-12T14:50:55.233Z,19.23
2018-11-12T14:55:58.982Z,21.00
2018-11-12T15:01:02.996Z,19.93
2018-11-12T15:06:06.704Z,22.13
2018-11-12T15:11:10.645Z,21.50
2018-11-12T15:16:14.197Z,22.87
2018-11-12T15:21:18.308Z,22.20
2018-11-12T15:26:22.018Z,23.77
2018-11-12T15:31:25.777Z,23.00
2018-11-12T15:36:29.617Z,24.77
2018-11-12T15:41:33.318Z,22.47
2018-11-12T15:46:37.090Z,24.23
2018-11-12T15:51:41.369Z,24.07
2018-11-12T15:56:45.080Z,24.53
2018-11-12T16:01:49.067Z,25.37
2018-11-12T16:06:52.860Z,24.90
2018-11-12T16:11:56.871Z,23.90
2018-11-12T16:17:00.504Z,23.40
2018-11-12T16:22:04.530Z,24.13
2018-11-12T16:27:08.445Z,23.80
2018-11-12T16:32:12.273Z,20.53
2018-11-12T16:37:16.262Z,21.83
2018-11-12T16:42:20.223Z,21.60
2018-11-12T16:47:24.357Z,18.03
2018-11-12T16:52:28.150Z,16.90
2018-11-12T16:57:31.844Z,16.20
2018-11-12T17:02:36.020Z,13.73
2018-11-12T17:07:39.777Z,13.87
2018-11-12T17:12:44.371Z,13.73
2018-11-12T17:17:48.275Z,13.67
2018-11-12T17:22:52.517Z,13.50
2018-11-12T17:27:56.555Z,13.33
2018-11-12T17:33:00.219Z,14.93
2018-11-12T17:38:03.782Z,14.57
2018-11-12T17:43:08.654Z,15.20
2018-11-12T17:48:22.274Z,15.90
2018-11-12T17:53:25.927Z,17.93
2018-11-12T17:58:29.985Z,18.43
2018-11-12T18:03:33.790Z,19.00
2018-11-12T18:08:37.427Z,17.77
2018-11-12T18:13:41.313Z,14.80
2018-11-12T18:18:45.268Z,14.30
2018-11-12T18:23:49.022Z,14.47
2018-11-12T18:28:52.682Z,13.70
2018-11-12T18:33:56.937Z,14.47
2018-11-12T18:39:01.047Z,12.80
2018-11-12T18:44:04.705Z,13.50
2018-11-12T18:49:09.102Z,12.90
2018-11-12T18:54:13.602Z,13.30
2018-11-12T18:59:17.671Z,14.30
2018-11-12T19:04:21.692Z,14.47
2018-11-12T19:09:25.394Z,14.20
2018-11-12T19:14:29.170Z,14.33
2018-11-12T19:19:33.333Z,13.87
2018-11-12T19:24:37.377Z,14.93
2018-11-12T19:29:41.449Z,15.00
2018-11-12T19:34:45.306Z,16.40
2018-11-12T19:39:48.976Z,15.23
2018-11-12T19:44:52.704Z,16.13
2018-11-12T19:49:56.606Z,15.80
2018-11-12T19:55:00.591Z,17.43
2018-11-12T20:00:04.808Z,18.13
2018-11-12T20:05:09.467Z,17.53
2018-11-12T20:10:15.344Z,17.87
2018-11-12T20:15:21.029Z,17.30
2018-11-12T20:20:26.234Z,18.93
2018-11-12T20:25:30.174Z,17.50
2018-11-12T20:30:36.818Z,17.90
2018-11-12T20:35:40.957Z,18.00
2018-11-12T20:46:12.533Z,15.33
2018-11-12T20:51:16.334Z,15.67
2018-11-12T20:56:20.544Z,15.33
2018-11-12T21:01:24.645Z,14.40
2018-11-12T21:06:28.547Z,15.43
2018-11-12T21:11:32.380Z,14.87
2018-11-12T21:16:37.466Z,15.37
2018-11-12T21:21:41.282Z,14.87
2018-11-12T21:26:45.374Z,15.37
2018-11-12T21:31:50.587Z,15.03
2018-11-12T21:36:55.050Z,15.07
2018-11-12T21:42:04.833Z,15.03
2018-11-12T21:47:09.905Z,16.27
2018-11-12T21:52:14.965Z,14.20
2018-11-12T21:57:19.137Z,14.80
2018-11-12T22:02:23.404Z,14.37
2018-11-12T22:07:28.222Z,14.60
2018-11-12T22:12:33.001Z,13.67
2018-11-12T22:17:38.198Z,14.83
2018-11-12T22:22:42.666Z,14.00
2018-11-12T22:27:47.808Z,14.97
2018-11-12T22:32:53.120Z,14.07
2018-11-12T22:37:56.883Z,14.10
2018-11-12T22:43:00.665Z,15.20
2018-11-12T22:48:05.049Z,13.87
2018-11-12T22:53:08.683Z,14.33
2018-11-12T22:58:12.514Z,14.23
2018-11-12T23:03:16.146Z,15.33
2018-11-12T23:08:19.802Z,15.70
2018-11-12T23:13:23.965Z,16.37
2018-11-12T23:18:40.712Z,17.30
2018-11-12T23:23:44.513Z,17.60
2018-11-12T23:28:48.720Z,19.00
2018-11-12T23:33:53.125Z,18.33
2018-11-12T23:38:56.885Z,17.70
2018-11-12T23:44:00.683Z,18.10
2018-11-12T23:49:04.779Z,18.03
2018-11-12T23:54:08.748Z,18.97
2018-11-12T23:59:12.881Z,17.77
